sensor_id;sensor_type;location;lat;lon;timestamp;temperature;humidity
52743;DHT22;55583;53.012;6.556;2023-08-30T00:01:49;12.70;99.90
52743;DHT22;55583;53.012;6.556;2023-08-30T00:04:15;12.70;99.90
52743;DHT22;55583;53.012;6.556;2023-08-30T00:06:46;12.70;99.90
52743;DHT22;55583;53.012;6.556;2023-08-30T00:09:12;12.70;99.90
52743;DHT22;55583;53.012;6.556;2023-08-30T00:11:38;12.60;99.90
52743;DHT22;55583;53.012;6.556;2023-08-30T00:14:05;12.60;99.90
52743;DHT22;55583;53.012;6.556;2023-08-30T00:16:32;12.60;99.90
52743;DHT22;55583;53.012;6.556;2023-08-30T00:18:59;12.60;99.90
52743;DHT22;55583;53.012;6.556;2023-08-30T00:21:24;12.50;99.90
52743;DHT22;55583;53.012;6.556;2023-08-30T00:23:51;12.50;99.90
52743;DHT22;55583;53.012;6.556;2023-08-30T00:26:17;12.50;99.90
52743;DHT22;55583;53.012;6.556;2023-08-30T00:28:42;12.50;99.90
52743;DHT22;55583;53.012;6.556;2023-08-30T00:31:08;12.40;99.90
52743;DHT22;55583;53.012;6.556;2023-08-30T00:33:34;12.40;99.90
52743;DHT22;55583;53.012;6.556;2023-08-30T00:36:00;12.40;99.90
52743;DHT22;55583;53.012;6.556;2023-08-30T00:38:28;12.40;99.90
52743;DHT22;55583;53.012;6.556;2023-08-30T00:40:55;12.40;99.90
52743;DHT22;55583;53.012;6.556;2023-08-30T00:43:21;12.40;99.90
52743;DHT22;55583;53.012;6.556;2023-08-30T00:45:47;12.40;99.90
52743;DHT22;55583;53.012;6.556;2023-08-30T00:48:14;12.40;99.90
52743;DHT22;55583;53.012;6.556;2023-08-30T00:50:41;12.40;99.90
52743;DHT22;55583;53.012;6.556;2023-08-30T00:53:07;12.50;99.90
52743;DHT22;55583;53.012;6.556;2023-08-30T00:55:35;12.40;99.90
52743;DHT22;55583;53.012;6.556;2023-08-30T00:58:01;12.30;99.90
52743;DHT22;55583;53.012;6.556;2023-08-30T01:00:31;12.20;99.90
52743;DHT22;55583;53.012;6.556;2023-08-30T01:02:57;12.20;99.90
52743;DHT22;55583;53.012;6.556;2023-08-30T01:05:23;12.20;99.90
52743;DHT22;55583;53.012;6.556;2023-08-30T01:07:52;12.10;99.90
52743;DHT22;55583;53.012;6.556;2023-08-30T01:10:50;12.10;99.90
52743;DHT22;55583;53.012;6.556;2023-08-30T01:13:18;12.10;99.90
52743;DHT22;55583;53.012;6.556;2023-08-30T01:15:48;12.20;99.90
52743;DHT22;55583;53.012;6.556;2023-08-30T01:18:17;12.20;99.90
52743;DHT22;55583;53.012;6.556;2023-08-30T01:20:44;12.20;99.90
52743;DHT22;55583;53.012;6.556;2023-08-30T01:28:27;12.20;99.90
52743;DHT22;55583;53.012;6.556;2023-08-30T01:30:55;12.20;99.90
52743;DHT22;55583;53.012;6.556;2023-08-30T01:33:21;12.20;99.90
52743;DHT22;55583;53.012;6.556;2023-08-30T01:35:48;12.30;99.90
52743;DHT22;55583;53.012;6.556;2023-08-30T01:38:14;12.20;99.90
52743;DHT22;55583;53.012;6.556;2023-08-30T01:40:42;12.10;99.90
52743;DHT22;55583;53.012;6.556;2023-08-30T01:43:09;12.10;99.90
52743;DHT22;55583;53.012;6.556;2023-08-30T01:45:41;12.00;99.90
52743;DHT22;55583;53.012;6.556;2023-08-30T01:48:10;12.00;99.90
52743;DHT22;55583;53.012;6.556;2023-08-30T01:50:38;12.00;99.90
52743;DHT22;55583;53.012;6.556;2023-08-30T01:53:05;11.90;99.90
52743;DHT22;55583;53.012;6.556;2023-08-30T01:55:32;11.90;99.90
52743;DHT22;55583;53.012;6.556;2023-08-30T01:57:58;11.90;99.90
52743;DHT22;55583;53.012;6.556;2023-08-30T02:00:24;11.80;99.90
52743;DHT22;55583;53.012;6.556;2023-08-30T02:02:49;11.80;99.90
52743;DHT22;55583;53.012;6.556;2023-08-30T02:05:15;11.80;99.90
52743;DHT22;55583;53.012;6.556;2023-08-30T02:10:17;11.70;99.90
52743;DHT22;55583;53.012;6.556;2023-08-30T02:12:52;11.70;99.90
52743;DHT22;55583;53.012;6.556;2023-08-30T02:15:20;11.70;99.90
52743;DHT22;55583;53.012;6.556;2023-08-30T02:17:48;11.60;99.90
52743;DHT22;55583;53.012;6.556;2023-08-30T02:20:14;11.60;99.90
52743;DHT22;55583;53.012;6.556;2023-08-30T02:22:40;11.60;99.90
52743;DHT22;55583;53.012;6.556;2023-08-30T02:25:06;11.60;99.90
52743;DHT22;55583;53.012;6.556;2023-08-30T02:27:32;11.50;99.90
52743;DHT22;55583;53.012;6.556;2023-08-30T02:29:58;11.50;99.90
52743;DHT22;55583;53.012;6.556;2023-08-30T02:32:24;11.50;99.90
52743;DHT22;55583;53.012;6.556;2023-08-30T02:34:51;11.50;99.90
52743;DHT22;55583;53.012;6.556;2023-08-30T02:37:18;11.50;99.90
52743;DHT22;55583;53.012;6.556;2023-08-30T02:39:43;11.60;99.90
52743;DHT22;55583;53.012;6.556;2023-08-30T02:42:09;11.60;99.90
52743;DHT22;55583;53.012;6.556;2023-08-30T02:44:35;11.70;99.90
52743;DHT22;55583;53.012;6.556;2023-08-30T02:47:01;11.70;99.90
52743;DHT22;55583;53.012;6.556;2023-08-30T02:49:26;11.70;99.90
52743;DHT22;55583;53.012;6.556;2023-08-30T02:51:52;11.80;99.90
52743;DHT22;55583;53.012;6.556;2023-08-30T02:54:18;12.00;99.90
52743;DHT22;55583;53.012;6.556;2023-08-30T02:56:44;11.90;99.90
52743;DHT22;55583;53.012;6.556;2023-08-30T02:59:10;12.00;99.90
52743;DHT22;55583;53.012;6.556;2023-08-30T03:01:37;12.00;99.90
52743;DHT22;55583;53.012;6.556;2023-08-30T03:04:04;12.00;99.90
52743;DHT22;55583;53.012;6.556;2023-08-30T03:06:30;12.00;99.90
52743;DHT22;55583;53.012;6.556;2023-08-30T03:08:56;12.00;99.90
52743;DHT22;55583;53.012;6.556;2023-08-30T03:11:21;12.00;99.90
52743;DHT22;55583;53.012;6.556;2023-08-30T03:13:47;12.00;99.90
52743;DHT22;55583;53.012;6.556;2023-08-30T03:16:16;12.00;99.90
52743;DHT22;55583;53.012;6.556;2023-08-30T03:18:43;11.90;99.90
52743;DHT22;55583;53.012;6.556;2023-08-30T03:21:09;11.90;99.90
52743;DHT22;55583;53.012;6.556;2023-08-30T03:23:35;11.80;99.90
52743;DHT22;55583;53.012;6.556;2023-08-30T03:26:12;11.80;99.90
52743;DHT22;55583;53.012;6.556;2023-08-30T03:28:38;11.70;99.90
52743;DHT22;55583;53.012;6.556;2023-08-30T03:31:17;11.60;99.90
52743;DHT22;55583;53.012;6.556;2023-08-30T03:33:43;11.60;99.90
52743;DHT22;55583;53.012;6.556;2023-08-30T03:36:14;11.50;99.90
52743;DHT22;55583;53.012;6.556;2023-08-30T03:38:40;11.50;99.90
52743;DHT22;55583;53.012;6.556;2023-08-30T03:41:06;11.40;99.90
52743;DHT22;55583;53.012;6.556;2023-08-30T03:43:33;11.40;99.90
52743;DHT22;55583;53.012;6.556;2023-08-30T03:45:59;11.40;99.90
52743;DHT22;55583;53.012;6.556;2023-08-30T03:48:26;11.40;99.90
52743;DHT22;55583;53.012;6.556;2023-08-30T03:50:52;11.30;99.90
52743;DHT22;55583;53.012;6.556;2023-08-30T03:53:17;11.30;99.90
52743;DHT22;55583;53.012;6.556;2023-08-30T03:55:43;11.20;99.90
52743;DHT22;55583;53.012;6.556;2023-08-30T03:58:09;11.20;99.90
52743;DHT22;55583;53.012;6.556;2023-08-30T04:00:38;11.20;99.90
52743;DHT22;55583;53.012;6.556;2023-08-30T04:03:08;11.20;99.90
52743;DHT22;55583;53.012;6.556;2023-08-30T04:05:36;11.10;99.90
52743;DHT22;55583;53.012;6.556;2023-08-30T04:08:04;11.10;99.90
52743;DHT22;55583;53.012;6.556;2023-08-30T04:10:33;11.10;99.90
52743;DHT22;55583;53.012;6.556;2023-08-30T04:12:59;11.10;99.90
52743;DHT22;55583;53.012;6.556;2023-08-30T04:15:25;11.10;99.90
52743;DHT22;55583;53.012;6.556;2023-08-30T04:17:50;11.20;99.90
52743;DHT22;55583;53.012;6.556;2023-08-30T04:20:16;11.20;99.90
52743;DHT22;55583;53.012;6.556;2023-08-30T04:22:42;11.30;99.90
52743;DHT22;55583;53.012;6.556;2023-08-30T04:25:08;11.40;99.90
52743;DHT22;55583;53.012;6.556;2023-08-30T04:27:35;11.40;99.90
52743;DHT22;55583;53.012;6.556;2023-08-30T04:30:01;11.50;99.90
52743;DHT22;55583;53.012;6.556;2023-08-30T04:32:27;11.50;99.90
52743;DHT22;55583;53.012;6.556;2023-08-30T04:34:52;11.50;99.90
52743;DHT22;55583;53.012;6.556;2023-08-30T04:37:18;11.60;99.90
52743;DHT22;55583;53.012;6.556;2023-08-30T04:39:47;11.70;99.90
52743;DHT22;55583;53.012;6.556;2023-08-30T04:42:14;11.70;99.90
52743;DHT22;55583;53.012;6.556;2023-08-30T04:44:39;11.70;99.90
52743;DHT22;55583;53.012;6.556;2023-08-30T04:47:05;11.80;99.90
52743;DHT22;55583;53.012;6.556;2023-08-30T04:49:31;11.80;99.90
52743;DHT22;55583;53.012;6.556;2023-08-30T04:51:56;11.80;99.90
52743;DHT22;55583;53.012;6.556;2023-08-30T04:54:22;11.80;99.90
52743;DHT22;55583;53.012;6.556;2023-08-30T04:56:47;11.80;99.90
52743;DHT22;55583;53.012;6.556;2023-08-30T04:59:13;11.80;99.90
52743;DHT22;55583;53.012;6.556;2023-08-30T05:01:39;11.80;99.90
52743;DHT22;55583;53.012;6.556;2023-08-30T05:04:07;11.80;99.90
52743;DHT22;55583;53.012;6.556;2023-08-30T05:06:33;11.90;99.90
52743;DHT22;55583;53.012;6.556;2023-08-30T05:08:59;11.90;99.90
52743;DHT22;55583;53.012;6.556;2023-08-30T05:11:24;11.90;99.90
52743;DHT22;55583;53.012;6.556;2023-08-30T05:13:50;11.90;99.90
52743;DHT22;55583;53.012;6.556;2023-08-30T05:16:15;11.90;99.90
52743;DHT22;55583;53.012;6.556;2023-08-30T05:18:41;11.90;99.90
52743;DHT22;55583;53.012;6.556;2023-08-30T05:21:07;12.00;99.90
52743;DHT22;55583;53.012;6.556;2023-08-30T05:23:32;12.00;99.90
52743;DHT22;55583;53.012;6.556;2023-08-30T05:25:58;12.20;99.90
52743;DHT22;55583;53.012;6.556;2023-08-30T05:28:24;12.00;99.90
52743;DHT22;55583;53.012;6.556;2023-08-30T05:30:49;12.50;99.90
52743;DHT22;55583;53.012;6.556;2023-08-30T05:33:15;12.10;99.90
52743;DHT22;55583;53.012;6.556;2023-08-30T05:35:41;12.10;99.90
52743;DHT22;55583;53.012;6.556;2023-08-30T05:38:06;12.20;99.90
52743;DHT22;55583;53.012;6.556;2023-08-30T05:40:32;12.20;99.90
52743;DHT22;55583;53.012;6.556;2023-08-30T05:42:58;12.30;99.90
52743;DHT22;55583;53.012;6.556;2023-08-30T05:45:23;12.50;99.90
52743;DHT22;55583;53.012;6.556;2023-08-30T05:47:49;12.40;99.90
52743;DHT22;55583;53.012;6.556;2023-08-30T05:50:15;12.40;99.90
52743;DHT22;55583;53.012;6.556;2023-08-30T05:52:40;12.50;99.90
52743;DHT22;55583;53.012;6.556;2023-08-30T05:55:09;12.60;99.90
52743;DHT22;55583;53.012;6.556;2023-08-30T05:57:35;12.70;99.90
52743;DHT22;55583;53.012;6.556;2023-08-30T06:00:01;12.80;99.90
52743;DHT22;55583;53.012;6.556;2023-08-30T06:02:27;12.80;99.90
52743;DHT22;55583;53.012;6.556;2023-08-30T06:04:53;12.90;99.90
52743;DHT22;55583;53.012;6.556;2023-08-30T06:07:19;13.00;99.90
52743;DHT22;55583;53.012;6.556;2023-08-30T06:09:44;13.00;99.90
52743;DHT22;55583;53.012;6.556;2023-08-30T06:12:10;13.10;99.90
52743;DHT22;55583;53.012;6.556;2023-08-30T06:14:36;13.10;99.90
52743;DHT22;55583;53.012;6.556;2023-08-30T06:17:01;13.20;99.90
52743;DHT22;55583;53.012;6.556;2023-08-30T06:19:27;13.20;99.90
52743;DHT22;55583;53.012;6.556;2023-08-30T06:21:53;13.20;99.90
52743;DHT22;55583;53.012;6.556;2023-08-30T06:24:19;13.20;99.90
52743;DHT22;55583;53.012;6.556;2023-08-30T06:26:45;13.30;99.90
52743;DHT22;55583;53.012;6.556;2023-08-30T06:29:10;13.30;99.90
52743;DHT22;55583;53.012;6.556;2023-08-30T06:31:36;13.30;99.90
52743;DHT22;55583;53.012;6.556;2023-08-30T06:34:02;13.40;99.90
52743;DHT22;55583;53.012;6.556;2023-08-30T06:36:28;13.50;99.90
52743;DHT22;55583;53.012;6.556;2023-08-30T06:38:53;13.50;99.90
52743;DHT22;55583;53.012;6.556;2023-08-30T06:41:19;13.60;99.90
52743;DHT22;55583;53.012;6.556;2023-08-30T06:43:44;13.60;99.90
52743;DHT22;55583;53.012;6.556;2023-08-30T06:46:10;13.60;99.90
52743;DHT22;55583;53.012;6.556;2023-08-30T06:48:36;13.80;99.90
52743;DHT22;55583;53.012;6.556;2023-08-30T06:51:01;13.70;99.90
52743;DHT22;55583;53.012;6.556;2023-08-30T06:53:27;13.80;99.90
52743;DHT22;55583;53.012;6.556;2023-08-30T06:56:00;13.80;99.90
52743;DHT22;55583;53.012;6.556;2023-08-30T06:58:26;13.70;99.90
52743;DHT22;55583;53.012;6.556;2023-08-30T07:00:52;13.80;99.90
52743;DHT22;55583;53.012;6.556;2023-08-30T07:03:18;13.90;99.90
52743;DHT22;55583;53.012;6.556;2023-08-30T07:05:43;13.90;99.90
52743;DHT22;55583;53.012;6.556;2023-08-30T07:08:09;13.90;99.90
52743;DHT22;55583;53.012;6.556;2023-08-30T07:10:35;13.90;99.90
52743;DHT22;55583;53.012;6.556;2023-08-30T07:13:01;14.00;99.90
52743;DHT22;55583;53.012;6.556;2023-08-30T07:15:26;14.00;99.90
52743;DHT22;55583;53.012;6.556;2023-08-30T07:17:52;14.10;99.90
52743;DHT22;55583;53.012;6.556;2023-08-30T07:20:17;14.20;99.90
52743;DHT22;55583;53.012;6.556;2023-08-30T07:22:43;14.20;99.90
52743;DHT22;55583;53.012;6.556;2023-08-30T07:25:09;14.30;99.90
52743;DHT22;55583;53.012;6.556;2023-08-30T07:27:36;14.30;99.90
52743;DHT22;55583;53.012;6.556;2023-08-30T07:30:03;14.40;99.90
52743;DHT22;55583;53.012;6.556;2023-08-30T07:32:30;14.60;99.90
52743;DHT22;55583;53.012;6.556;2023-08-30T07:34:55;14.80;99.90
52743;DHT22;55583;53.012;6.556;2023-08-30T07:37:22;14.90;99.90
52743;DHT22;55583;53.012;6.556;2023-08-30T07:39:47;15.00;99.90
52743;DHT22;55583;53.012;6.556;2023-08-30T07:42:16;15.20;99.90
52743;DHT22;55583;53.012;6.556;2023-08-30T07:44:42;15.40;99.90
52743;DHT22;55583;53.012;6.556;2023-08-30T07:47:07;15.60;99.90
52743;DHT22;55583;53.012;6.556;2023-08-30T07:49:33;15.90;99.90
52743;DHT22;55583;53.012;6.556;2023-08-30T07:51:58;16.10;99.90
52743;DHT22;55583;53.012;6.556;2023-08-30T07:54:24;16.20;99.90
52743;DHT22;55583;53.012;6.556;2023-08-30T07:56:50;16.30;99.90
52743;DHT22;55583;53.012;6.556;2023-08-30T07:59:15;16.40;99.90
52743;DHT22;55583;53.012;6.556;2023-08-30T08:01:41;16.50;99.90
52743;DHT22;55583;53.012;6.556;2023-08-30T08:04:06;16.50;99.90
52743;DHT22;55583;53.012;6.556;2023-08-30T08:06:32;16.60;99.90
52743;DHT22;55583;53.012;6.556;2023-08-30T08:08:58;16.60;99.90
52743;DHT22;55583;53.012;6.556;2023-08-30T08:11:25;16.70;99.90
52743;DHT22;55583;53.012;6.556;2023-08-30T08:13:50;16.80;99.90
52743;DHT22;55583;53.012;6.556;2023-08-30T08:16:17;16.90;99.90
52743;DHT22;55583;53.012;6.556;2023-08-30T08:18:43;17.00;99.90
52743;DHT22;55583;53.012;6.556;2023-08-30T08:21:08;17.20;99.90
52743;DHT22;55583;53.012;6.556;2023-08-30T08:23:34;17.20;99.90
52743;DHT22;55583;53.012;6.556;2023-08-30T08:26:00;17.20;99.90
52743;DHT22;55583;53.012;6.556;2023-08-30T08:28:26;17.30;99.90
52743;DHT22;55583;53.012;6.556;2023-08-30T08:30:52;17.20;99.90
52743;DHT22;55583;53.012;6.556;2023-08-30T08:33:18;17.20;99.90
52743;DHT22;55583;53.012;6.556;2023-08-30T08:35:44;17.20;99.90
52743;DHT22;55583;53.012;6.556;2023-08-30T08:38:10;17.10;99.90
52743;DHT22;55583;53.012;6.556;2023-08-30T08:40:39;17.20;99.90
52743;DHT22;55583;53.012;6.556;2023-08-30T08:43:05;17.20;99.90
52743;DHT22;55583;53.012;6.556;2023-08-30T08:45:35;17.20;99.90
52743;DHT22;55583;53.012;6.556;2023-08-30T08:48:03;17.30;99.90
52743;DHT22;55583;53.012;6.556;2023-08-30T08:50:29;17.30;99.90
52743;DHT22;55583;53.012;6.556;2023-08-30T08:52:56;17.30;99.90
52743;DHT22;55583;53.012;6.556;2023-08-30T08:55:22;17.20;99.90
52743;DHT22;55583;53.012;6.556;2023-08-30T08:57:48;17.10;99.90
52743;DHT22;55583;53.012;6.556;2023-08-30T09:00:14;17.00;99.90
52743;DHT22;55583;53.012;6.556;2023-08-30T09:02:42;16.90;99.90
52743;DHT22;55583;53.012;6.556;2023-08-30T09:05:08;16.80;99.90
52743;DHT22;55583;53.012;6.556;2023-08-30T09:07:36;16.70;99.90
52743;DHT22;55583;53.012;6.556;2023-08-30T09:10:02;16.60;99.90
52743;DHT22;55583;53.012;6.556;2023-08-30T09:12:32;16.50;99.90
52743;DHT22;55583;53.012;6.556;2023-08-30T09:14:58;16.50;99.90
52743;DHT22;55583;53.012;6.556;2023-08-30T09:17:24;16.50;99.90
52743;DHT22;55583;53.012;6.556;2023-08-30T09:20:06;16.40;99.90
52743;DHT22;55583;53.012;6.556;2023-08-30T09:22:42;16.40;99.90
52743;DHT22;55583;53.012;6.556;2023-08-30T09:25:09;16.30;99.90
52743;DHT22;55583;53.012;6.556;2023-08-30T09:27:36;16.30;99.90
52743;DHT22;55583;53.012;6.556;2023-08-30T09:30:07;16.20;99.90
52743;DHT22;55583;53.012;6.556;2023-08-30T09:32:42;16.10;99.90
52743;DHT22;55583;53.012;6.556;2023-08-30T09:35:08;16.10;99.90
52743;DHT22;55583;53.012;6.556;2023-08-30T09:37:34;16.00;99.90
52743;DHT22;55583;53.012;6.556;2023-08-30T09:40:00;16.00;99.90
52743;DHT22;55583;53.012;6.556;2023-08-30T09:42:26;15.90;99.90
52743;DHT22;55583;53.012;6.556;2023-08-30T09:44:51;15.80;99.90
52743;DHT22;55583;53.012;6.556;2023-08-30T09:47:18;15.60;99.90
52743;DHT22;55583;53.012;6.556;2023-08-30T09:49:45;15.40;99.90
52743;DHT22;55583;53.012;6.556;2023-08-30T09:52:14;15.10;99.90
52743;DHT22;55583;53.012;6.556;2023-08-30T09:54:41;14.90;99.90
52743;DHT22;55583;53.012;6.556;2023-08-30T09:57:09;14.90;99.90
52743;DHT22;55583;53.012;6.556;2023-08-30T09:59:35;14.90;99.90
52743;DHT22;55583;53.012;6.556;2023-08-30T10:02:03;15.00;99.90
52743;DHT22;55583;53.012;6.556;2023-08-30T10:04:31;15.20;99.90
52743;DHT22;55583;53.012;6.556;2023-08-30T10:06:58;15.50;99.90
52743;DHT22;55583;53.012;6.556;2023-08-30T10:09:24;15.90;99.90
52743;DHT22;55583;53.012;6.556;2023-08-30T10:11:51;16.40;99.90
52743;DHT22;55583;53.012;6.556;2023-08-30T10:14:17;17.00;99.90
52743;DHT22;55583;53.012;6.556;2023-08-30T10:16:47;17.20;99.90
52743;DHT22;55583;53.012;6.556;2023-08-30T10:19:26;17.00;99.90
52743;DHT22;55583;53.012;6.556;2023-08-30T10:22:05;16.90;99.90
52743;DHT22;55583;53.012;6.556;2023-08-30T10:24:44;16.90;99.90
52743;DHT22;55583;53.012;6.556;2023-08-30T10:27:12;16.90;99.90
52743;DHT22;55583;53.012;6.556;2023-08-30T10:29:40;16.80;99.90
52743;DHT22;55583;53.012;6.556;2023-08-30T10:32:07;16.90;99.90
52743;DHT22;55583;53.012;6.556;2023-08-30T10:34:36;17.10;99.90
52743;DHT22;55583;53.012;6.556;2023-08-30T10:37:06;17.30;99.90
52743;DHT22;55583;53.012;6.556;2023-08-30T10:39:37;17.30;99.90
52743;DHT22;55583;53.012;6.556;2023-08-30T10:42:14;17.50;99.90
52743;DHT22;55583;53.012;6.556;2023-08-30T10:45:02;17.80;99.90
52743;DHT22;55583;53.012;6.556;2023-08-30T10:47:32;18.10;99.90
52743;DHT22;55583;53.012;6.556;2023-08-30T10:50:05;18.30;99.90
52743;DHT22;55583;53.012;6.556;2023-08-30T10:52:30;18.30;99.90
52743;DHT22;55583;53.012;6.556;2023-08-30T10:55:13;18.30;99.90
52743;DHT22;55583;53.012;6.556;2023-08-30T10:57:43;18.20;99.90
52743;DHT22;55583;53.012;6.556;2023-08-30T11:00:23;18.10;99.90
52743;DHT22;55583;53.012;6.556;2023-08-30T11:02:49;18.10;99.90
52743;DHT22;55583;53.012;6.556;2023-08-30T11:05:17;17.90;99.90
52743;DHT22;55583;53.012;6.556;2023-08-30T11:07:46;17.80;99.90
52743;DHT22;55583;53.012;6.556;2023-08-30T11:10:14;17.60;99.90
52743;DHT22;55583;53.012;6.556;2023-08-30T11:12:40;17.40;99.90
52743;DHT22;55583;53.012;6.556;2023-08-30T11:15:07;17.20;99.90
52743;DHT22;55583;53.012;6.556;2023-08-30T11:17:34;17.10;99.90
52743;DHT22;55583;53.012;6.556;2023-08-30T11:20:11;16.90;99.90
52743;DHT22;55583;53.012;6.556;2023-08-30T11:22:45;16.80;99.90
52743;DHT22;55583;53.012;6.556;2023-08-30T11:25:11;16.70;99.90
52743;DHT22;55583;53.012;6.556;2023-08-30T11:27:38;16.60;99.90
52743;DHT22;55583;53.012;6.556;2023-08-30T11:30:05;16.60;99.90
52743;DHT22;55583;53.012;6.556;2023-08-30T11:32:49;16.60;99.90
52743;DHT22;55583;53.012;6.556;2023-08-30T11:35:16;16.60;99.90
52743;DHT22;55583;53.012;6.556;2023-08-30T11:37:43;16.50;99.90
52743;DHT22;55583;53.012;6.556;2023-08-30T11:40:11;16.40;99.90
52743;DHT22;55583;53.012;6.556;2023-08-30T11:42:37;16.30;99.90
52743;DHT22;55583;53.012;6.556;2023-08-30T11:45:03;16.20;99.90
52743;DHT22;55583;53.012;6.556;2023-08-30T11:47:29;16.20;99.90
52743;DHT22;55583;53.012;6.556;2023-08-30T11:49:56;16.20;99.90
52743;DHT22;55583;53.012;6.556;2023-08-30T11:52:23;16.20;99.90
52743;DHT22;55583;53.012;6.556;2023-08-30T11:54:50;16.20;99.90
52743;DHT22;55583;53.012;6.556;2023-08-30T11:57:16;16.20;99.90
52743;DHT22;55583;53.012;6.556;2023-08-30T11:59:42;16.10;99.90
52743;DHT22;55583;53.012;6.556;2023-08-30T12:02:08;16.10;99.90
52743;DHT22;55583;53.012;6.556;2023-08-30T12:04:41;16.00;99.90
52743;DHT22;55583;53.012;6.556;2023-08-30T12:07:07;16.00;99.90
52743;DHT22;55583;53.012;6.556;2023-08-30T12:09:33;16.00;99.90
52743;DHT22;55583;53.012;6.556;2023-08-30T12:12:08;16.10;99.90
52743;DHT22;55583;53.012;6.556;2023-08-30T12:14:37;16.00;99.90
52743;DHT22;55583;53.012;6.556;2023-08-30T12:17:03;16.10;99.90
52743;DHT22;55583;53.012;6.556;2023-08-30T12:19:30;16.10;99.90
52743;DHT22;55583;53.012;6.556;2023-08-30T12:21:56;16.00;99.90
52743;DHT22;55583;53.012;6.556;2023-08-30T12:24:28;16.00;99.90
52743;DHT22;55583;53.012;6.556;2023-08-30T12:26:54;16.00;99.90
52743;DHT22;55583;53.012;6.556;2023-08-30T12:29:19;16.10;99.90
52743;DHT22;55583;53.012;6.556;2023-08-30T12:31:45;16.10;99.90
52743;DHT22;55583;53.012;6.556;2023-08-30T12:34:11;16.10;99.90
52743;DHT22;55583;53.012;6.556;2023-08-30T12:36:37;16.10;99.90
52743;DHT22;55583;53.012;6.556;2023-08-30T12:39:02;16.10;99.90
52743;DHT22;55583;53.012;6.556;2023-08-30T12:41:29;16.20;99.90
52743;DHT22;55583;53.012;6.556;2023-08-30T12:43:55;16.20;99.90
52743;DHT22;55583;53.012;6.556;2023-08-30T12:46:21;16.30;99.90
52743;DHT22;55583;53.012;6.556;2023-08-30T12:48:46;16.40;99.90
52743;DHT22;55583;53.012;6.556;2023-08-30T12:51:12;16.40;99.90
52743;DHT22;55583;53.012;6.556;2023-08-30T12:53:39;16.50;99.90
52743;DHT22;55583;53.012;6.556;2023-08-30T12:56:04;16.50;99.90
52743;DHT22;55583;53.012;6.556;2023-08-30T12:58:30;16.40;99.90
52743;DHT22;55583;53.012;6.556;2023-08-30T13:00:55;16.40;99.90
52743;DHT22;55583;53.012;6.556;2023-08-30T13:03:21;16.40;99.90
52743;DHT22;55583;53.012;6.556;2023-08-30T13:05:47;16.30;99.90
52743;DHT22;55583;53.012;6.556;2023-08-30T13:08:12;16.30;99.90
52743;DHT22;55583;53.012;6.556;2023-08-30T13:10:38;16.20;99.90
52743;DHT22;55583;53.012;6.556;2023-08-30T13:13:04;16.20;99.90
52743;DHT22;55583;53.012;6.556;2023-08-30T13:15:29;16.30;99.90
52743;DHT22;55583;53.012;6.556;2023-08-30T13:17:55;16.40;99.90
52743;DHT22;55583;53.012;6.556;2023-08-30T13:20:21;16.50;99.90
52743;DHT22;55583;53.012;6.556;2023-08-30T13:22:47;16.50;99.90
52743;DHT22;55583;53.012;6.556;2023-08-30T13:25:13;16.50;99.90
52743;DHT22;55583;53.012;6.556;2023-08-30T13:27:38;16.50;99.90
52743;DHT22;55583;53.012;6.556;2023-08-30T13:30:05;16.40;99.90
52743;DHT22;55583;53.012;6.556;2023-08-30T13:32:30;16.40;99.90
52743;DHT22;55583;53.012;6.556;2023-08-30T13:34:56;16.30;99.90
52743;DHT22;55583;53.012;6.556;2023-08-30T13:37:22;16.20;99.90
52743;DHT22;55583;53.012;6.556;2023-08-30T13:39:49;16.10;99.90
52743;DHT22;55583;53.012;6.556;2023-08-30T13:42:14;16.00;99.90
52743;DHT22;55583;53.012;6.556;2023-08-30T13:44:40;15.90;99.90
52743;DHT22;55583;53.012;6.556;2023-08-30T13:47:08;15.80;99.90
52743;DHT22;55583;53.012;6.556;2023-08-30T13:49:33;15.70;99.90
52743;DHT22;55583;53.012;6.556;2023-08-30T13:52:00;15.40;99.90
52743;DHT22;55583;53.012;6.556;2023-08-30T13:54:26;15.30;99.90
52743;DHT22;55583;53.012;6.556;2023-08-30T13:56:56;15.20;99.90
52743;DHT22;55583;53.012;6.556;2023-08-30T13:59:22;15.10;99.90
52743;DHT22;55583;53.012;6.556;2023-08-30T14:01:48;15.10;99.90
52743;DHT22;55583;53.012;6.556;2023-08-30T14:04:13;15.10;99.90
52743;DHT22;55583;53.012;6.556;2023-08-30T14:06:39;15.00;99.90
52743;DHT22;55583;53.012;6.556;2023-08-30T14:09:05;15.10;99.90
52743;DHT22;55583;53.012;6.556;2023-08-30T14:11:34;15.10;99.90
52743;DHT22;55583;53.012;6.556;2023-08-30T14:14:02;15.20;99.90
52743;DHT22;55583;53.012;6.556;2023-08-30T14:16:27;15.30;99.90
52743;DHT22;55583;53.012;6.556;2023-08-30T14:18:53;15.40;99.90
52743;DHT22;55583;53.012;6.556;2023-08-30T14:21:19;15.50;99.90
52743;DHT22;55583;53.012;6.556;2023-08-30T14:23:45;15.60;99.90
52743;DHT22;55583;53.012;6.556;2023-08-30T14:26:11;15.70;99.90
52743;DHT22;55583;53.012;6.556;2023-08-30T14:28:39;15.80;99.90
52743;DHT22;55583;53.012;6.556;2023-08-30T14:31:09;15.90;99.90
52743;DHT22;55583;53.012;6.556;2023-08-30T14:33:36;16.00;99.90
52743;DHT22;55583;53.012;6.556;2023-08-30T14:36:02;16.10;99.90
52743;DHT22;55583;53.012;6.556;2023-08-30T14:38:28;16.10;99.90
52743;DHT22;55583;53.012;6.556;2023-08-30T14:40:55;16.10;99.90
52743;DHT22;55583;53.012;6.556;2023-08-30T14:43:21;16.10;99.90
52743;DHT22;55583;53.012;6.556;2023-08-30T14:45:47;16.10;99.90
52743;DHT22;55583;53.012;6.556;2023-08-30T14:48:12;16.00;99.90
52743;DHT22;55583;53.012;6.556;2023-08-30T14:50:38;16.10;99.90
52743;DHT22;55583;53.012;6.556;2023-08-30T14:53:04;16.10;99.90
52743;DHT22;55583;53.012;6.556;2023-08-30T14:55:31;16.20;99.90
52743;DHT22;55583;53.012;6.556;2023-08-30T14:57:56;16.20;99.90
52743;DHT22;55583;53.012;6.556;2023-08-30T15:00:22;16.20;99.90
52743;DHT22;55583;53.012;6.556;2023-08-30T15:02:47;16.20;99.90
52743;DHT22;55583;53.012;6.556;2023-08-30T15:05:13;16.20;99.90
52743;DHT22;55583;53.012;6.556;2023-08-30T15:07:39;16.30;99.90
52743;DHT22;55583;53.012;6.556;2023-08-30T15:10:05;16.50;99.90
52743;DHT22;55583;53.012;6.556;2023-08-30T15:12:30;16.80;99.90
52743;DHT22;55583;53.012;6.556;2023-08-30T15:14:56;16.90;99.90
52743;DHT22;55583;53.012;6.556;2023-08-30T15:17:21;17.00;99.90
52743;DHT22;55583;53.012;6.556;2023-08-30T15:19:47;17.10;99.90
52743;DHT22;55583;53.012;6.556;2023-08-30T15:22:13;17.20;99.90
52743;DHT22;55583;53.012;6.556;2023-08-30T15:24:38;17.20;99.90
52743;DHT22;55583;53.012;6.556;2023-08-30T15:27:04;17.20;99.90
52743;DHT22;55583;53.012;6.556;2023-08-30T15:29:30;17.30;99.90
52743;DHT22;55583;53.012;6.556;2023-08-30T15:31:55;17.30;99.90
52743;DHT22;55583;53.012;6.556;2023-08-30T15:34:21;17.40;99.90
52743;DHT22;55583;53.012;6.556;2023-08-30T15:36:47;17.60;99.90